Terminal Aerodrome Forecast
Issued by NWS Twin Cities, MN

Home | Current Version | Previous Version | Graphics & Text | Print | Product List | Glossary On
Versions: 1 2 3 4 5 6 7 8 9 10 11 12 13 14 15 16 17 18 19 20 21 22 23 24 25 26 27
000
FTUS43 KMPX 260730 AAA
TAFSTC
TAF AMD
KSTC 260730Z 2608/2706 14004KT 4SM BR BKN003
     FM261200 19005KT P6SM FEW250
     FM261230 23007KT P6SM SKC
     FM270000 VRB03KT P6SM SCT100 BKN250=

USA.gov is the U.S. government's official web portal to all federal, state and local government web resources and services.